createdAt,value
2023-01-01T00:01:42.276Z,99836.66
2023-01-01T00:04:12.600Z,99837.91
2023-01-01T00:06:39.488Z,99844.59
2023-01-01T00:09:24.994Z,99833.53
2023-01-01T00:11:51.659Z,99826.00
2023-01-01T00:14:18.359Z,99836.88
2023-01-01T00:16:45.292Z,99832.28
2023-01-01T00:19:12.649Z,99844.19
2023-01-01T00:21:40.549Z,99837.19
2023-01-01T00:24:07.835Z,99844.28
2023-01-01T00:26:39.974Z,99833.84
2023-01-01T00:29:06.842Z,99844.72
2023-01-01T00:31:33.442Z,99838.31
2023-01-01T00:34:00.198Z,99841.06
2023-01-01T00:36:28.793Z,99839.41
2023-01-01T00:38:56.853Z,99844.63
2023-01-01T00:41:24.661Z,99846.84
2023-01-01T00:43:52.366Z,99847.75
2023-01-01T00:46:18.987Z,99855.69
2023-01-01T00:48:45.650Z,99841.88
2023-01-01T00:51:13.814Z,99846.28
2023-01-01T00:53:40.981Z,99844.84
2023-01-01T00:56:08.093Z,99850.03
2023-01-01T00:58:34.907Z,99869.09
2023-01-01T01:01:01.699Z,99863.56
2023-01-01T01:03:28.723Z,99867.72
2023-01-01T01:06:04.531Z,99871.28
2023-01-01T01:08:35.786Z,99875.69
2023-01-01T01:11:10.559Z,99878.59
2023-01-01T01:13:38.309Z,99886.06
2023-01-01T01:16:14.109Z,99893.31
2023-01-01T01:18:40.964Z,99892.06
2023-01-01T01:21:08.036Z,99893.56
2023-01-01T01:23:34.947Z,99899.00
2023-01-01T01:26:13.364Z,99895.63
2023-01-01T01:28:47.134Z,99900.81
2023-01-01T01:31:17.100Z,99909.94
2023-01-01T01:33:44.575Z,99899.53
2023-01-01T01:36:11.836Z,99897.59
2023-01-01T01:38:38.363Z,99917.56
2023-01-01T01:41:05.475Z,99905.47
2023-01-01T01:43:32.184Z,99916.16
2023-01-01T01:46:05.723Z,99903.41
2023-01-01T01:48:37.974Z,99902.56
2023-01-01T01:51:05.058Z,99903.00
2023-01-01T01:53:34.200Z,99903.97
2023-01-01T01:56:03.300Z,99912.97
2023-01-01T01:58:31.208Z,99903.78
2023-01-01T02:00:58.123Z,99916.72
2023-01-01T02:03:35.928Z,99909.34
2023-01-01T02:06:03.262Z,99909.53
2023-01-01T02:08:30.119Z,99906.19
2023-01-01T02:10:56.850Z,99907.38
2023-01-01T02:13:23.675Z,99905.81
2023-01-01T02:16:02.859Z,99905.47
2023-01-01T02:18:53.100Z,99905.22
2023-01-01T02:21:24.390Z,99905.22
2023-01-01T02:24:30.442Z,99903.91
2023-01-01T02:27:18.454Z,99905.38
2023-01-01T02:29:54.248Z,99902.75
2023-01-01T02:32:25.965Z,99900.31
2023-01-01T02:35:28.790Z,99897.25
2023-01-01T02:37:58.046Z,99900.28
2023-01-01T02:40:25.256Z,99904.47
2023-01-01T02:42:53.357Z,99902.72
2023-01-01T02:45:20.254Z,99901.44
2023-01-01T02:47:46.931Z,99902.47
2023-01-01T02:50:15.447Z,99900.13
2023-01-01T02:52:58.931Z,99905.22
2023-01-01T02:55:32.623Z,99903.34
2023-01-01T02:58:52.403Z,99906.63
2023-01-01T03:01:35.215Z,99900.97
2023-01-01T03:04:10.441Z,99907.59
2023-01-01T03:06:51.853Z,99898.63
2023-01-01T03:09:45.263Z,99906.53
2023-01-01T03:12:39.456Z,99905.75
2023-01-01T03:15:28.655Z,99905.16
2023-01-01T03:18:01.309Z,99895.91
2023-01-01T03:20:30.747Z,99892.53
2023-01-01T03:23:02.334Z,99895.69
2023-01-01T03:25:33.129Z,99893.53
2023-01-01T03:28:04.296Z,99890.16
2023-01-01T03:30:32.547Z,99896.06
2023-01-01T03:33:03.436Z,99897.19
2023-01-01T03:35:44.259Z,99889.72
2023-01-01T03:38:16.181Z,99894.03
2023-01-01T03:40:44.032Z,99901.09
2023-01-01T03:43:30.242Z,99901.88
2023-01-01T03:45:57.203Z,99908.56
2023-01-01T03:48:23.902Z,99894.19
2023-01-01T03:50:58.942Z,99894.03
2023-01-01T03:53:42.759Z,99895.22
2023-01-01T03:56:24.197Z,99883.88
2023-01-01T03:59:05.863Z,99894.19
2023-01-01T04:01:35.932Z,99894.47
2023-01-01T04:04:04.033Z,99899.22
2023-01-01T04:06:33.119Z,99914.50
2023-01-01T04:09:00.208Z,99899.50
2023-01-01T04:11:47.720Z,99898.66
2023-01-01T04:14:14.714Z,99903.22
2023-01-01T04:16:41.813Z,99895.97
2023-01-01T04:19:08.579Z,99903.34
2023-01-01T04:21:35.112Z,99904.50
2023-01-01T04:24:01.788Z,99902.50
2023-01-01T04:26:28.363Z,99904.97
2023-01-01T04:28:54.899Z,99899.91
2023-01-01T04:31:21.396Z,99906.72
2023-01-01T04:33:47.917Z,99912.13
2023-01-01T04:36:14.498Z,99919.53
2023-01-01T04:38:40.963Z,99916.25
2023-01-01T04:41:09.420Z,99927.00
2023-01-01T04:43:36.102Z,99916.91
2023-01-01T04:46:04.006Z,99918.41
2023-01-01T04:48:31.528Z,99919.28
2023-01-01T04:51:00.010Z,99920.03
2023-01-01T04:53:29.319Z,99915.34
2023-01-01T04:55:56.184Z,99918.25
2023-01-01T04:58:22.854Z,99926.94
2023-01-01T05:00:50.757Z,99928.63
2023-01-01T05:03:18.253Z,99914.50
2023-01-01T05:05:51.042Z,99916.16
2023-01-01T05:08:17.948Z,99915.22
2023-01-01T05:10:44.696Z,99918.41
2023-01-01T05:13:11.106Z,99923.38
2023-01-01T05:15:37.668Z,99918.75
2023-01-01T05:18:04.289Z,99921.53
2023-01-01T05:20:30.863Z,99915.97
2023-01-01T05:22:57.280Z,99920.50
2023-01-01T05:25:24.422Z,99918.44
2023-01-01T05:27:51.193Z,99908.44
2023-01-01T05:30:17.838Z,99914.97
2023-01-01T05:32:44.265Z,99914.59
2023-01-01T05:35:10.717Z,99911.88
2023-01-01T05:37:38.432Z,99921.44
2023-01-01T05:40:05.732Z,99921.78
2023-01-01T05:42:32.251Z,99925.91
2023-01-01T05:44:58.890Z,99923.66
2023-01-01T05:47:29.660Z,99911.28
2023-01-01T05:49:56.413Z,99906.31
2023-01-01T05:52:26.531Z,99915.88
2023-01-01T05:54:53.503Z,99920.38
2023-01-01T05:57:19.899Z,99920.28
2023-01-01T05:59:46.400Z,99926.66
2023-01-01T06:02:12.916Z,99925.59
2023-01-01T06:04:39.905Z,99932.25
2023-01-01T06:07:06.474Z,99930.38
2023-01-01T06:09:33.154Z,99930.66
2023-01-01T06:11:59.667Z,99931.97
2023-01-01T06:14:26.157Z,99930.38
2023-01-01T06:16:52.928Z,99933.41
2023-01-01T06:19:19.682Z,99925.91
2023-01-01T06:21:46.419Z,99935.75
2023-01-01T06:24:12.933Z,99939.28
2023-01-01T06:26:40.518Z,99936.53
2023-01-01T06:29:07.118Z,99945.25
2023-01-01T06:31:40.129Z,99945.25
2023-01-01T06:34:07.206Z,99954.84
2023-01-01T06:36:33.665Z,99951.75
2023-01-01T06:39:00.391Z,99957.81
2023-01-01T06:41:27.960Z,99947.97
2023-01-01T06:43:56.017Z,99956.13
2023-01-01T06:46:28.241Z,99958.91
2023-01-01T06:49:02.910Z,99958.22
2023-01-01T06:51:37.578Z,99963.94
2023-01-01T06:54:04.883Z,99967.09
2023-01-01T06:56:31.839Z,99968.91
2023-01-01T06:58:58.797Z,99982.00
2023-01-01T07:01:27.765Z,99984.06
2023-01-01T07:03:59.202Z,99990.53
2023-01-01T07:06:26.944Z,100002.53
2023-01-01T07:08:53.566Z,100000.47
2023-01-01T07:11:20.068Z,99995.22
2023-01-01T07:13:46.770Z,99991.84
2023-01-01T07:16:14.168Z,100002.91
2023-01-01T07:18:40.884Z,100000.91
2023-01-01T07:21:28.825Z,100011.22
2023-01-01T07:24:00.260Z,100007.84
2023-01-01T07:26:27.957Z,100004.47
2023-01-01T07:28:55.235Z,100003.25
2023-01-01T07:31:23.957Z,100015.72
2023-01-01T07:33:50.512Z,100017.69
2023-01-01T07:36:17.148Z,100030.78
2023-01-01T07:38:43.768Z,100033.31
2023-01-01T07:41:10.183Z,100037.91
2023-01-01T07:43:36.763Z,100049.59
2023-01-01T07:46:03.872Z,100057.75
2023-01-01T07:48:34.663Z,100061.97
2023-01-01T07:51:04.852Z,100064.88
2023-01-01T07:53:31.264Z,100072.38
2023-01-01T07:55:57.747Z,100070.88
2023-01-01T07:58:24.146Z,100085.00
2023-01-01T08:00:50.888Z,100087.72
2023-01-01T08:03:17.702Z,100089.50
2023-01-01T08:05:44.161Z,100096.16
2023-01-01T08:08:11.417Z,100105.53
2023-01-01T08:10:38.460Z,100096.16
2023-01-01T08:13:06.801Z,100087.19
2023-01-01T08:15:33.301Z,100100.84
2023-01-01T08:18:02.319Z,100088.75
2023-01-01T08:20:30.075Z,100089.75
2023-01-01T08:23:01.404Z,100089.72
2023-01-01T08:25:31.133Z,100093.50
2023-01-01T08:27:57.580Z,100087.50
2023-01-01T08:30:24.278Z,100093.75
2023-01-01T08:32:50.763Z,100105.50
2023-01-01T08:35:17.247Z,100112.53
2023-01-01T08:37:43.623Z,100109.97
2023-01-01T08:40:12.751Z,100107.72
2023-01-01T08:42:39.788Z,100116.34
2023-01-01T08:45:07.265Z,100117.91
2023-01-01T08:47:33.750Z,100128.00
2023-01-01T08:50:00.181Z,100122.75
2023-01-01T08:52:26.807Z,100141.09
2023-01-01T08:54:53.313Z,100137.28
2023-01-01T08:57:19.822Z,100115.41
2023-01-01T08:59:46.321Z,100125.16
2023-01-01T09:02:14.422Z,100128.03
2023-01-01T09:04:41.031Z,100133.88
2023-01-01T09:07:07.858Z,100145.22
2023-01-01T09:09:34.443Z,100150.63
2023-01-01T09:12:05.845Z,100150.06
2023-01-01T09:14:33.838Z,100154.00
2023-01-01T09:17:01.032Z,100158.84
2023-01-01T09:19:27.729Z,100168.94
2023-01-01T09:21:54.468Z,100172.50
2023-01-01T09:24:21.228Z,100170.06
2023-01-01T09:26:47.732Z,100174.38
2023-01-01T09:29:18.431Z,100193.06
2023-01-01T09:31:45.405Z,100185.19
2023-01-01T09:34:12.349Z,100185.47
2023-01-01T09:36:38.921Z,100178.09
2023-01-01T09:39:13.475Z,100173.94
2023-01-01T09:42:01.563Z,100171.56
2023-01-01T09:44:52.438Z,100163.28
2023-01-01T09:47:24.775Z,100168.28
2023-01-01T09:49:52.690Z,100174.53
2023-01-01T09:52:20.130Z,100170.81
2023-01-01T09:54:58.004Z,100165.06
2023-01-01T09:57:30.386Z,100170.94
2023-01-01T09:59:59.517Z,100174.69
2023-01-01T10:02:59.878Z,100173.91
2023-01-01T10:05:49.851Z,100172.41
2023-01-01T10:08:57.145Z,100186.53
2023-01-01T10:11:30.004Z,100175.50
2023-01-01T10:13:58.699Z,100166.38
2023-01-01T10:16:35.866Z,100162.25
2023-01-01T10:19:39.361Z,100172.16
2023-01-01T10:22:42.701Z,100167.25
2023-01-01T10:25:18.310Z,100170.47
2023-01-01T10:27:52.480Z,100187.50
2023-01-01T10:30:23.564Z,100187.84
2023-01-01T10:32:52.459Z,100206.38
2023-01-01T10:35:31.341Z,100199.38
2023-01-01T10:38:02.283Z,100204.28
2023-01-01T10:40:31.059Z,100193.19
2023-01-01T10:42:59.791Z,100192.00
2023-01-01T10:45:46.090Z,100167.56
2023-01-01T10:48:24.014Z,100172.63
2023-01-01T10:50:54.940Z,100169.25
2023-01-01T10:53:31.896Z,100172.69
2023-01-01T10:56:18.508Z,100161.88
2023-01-01T10:58:56.495Z,100171.13
2023-01-01T11:01:31.885Z,100172.50
2023-01-01T11:04:09.679Z,100177.50
2023-01-01T11:06:41.501Z,100171.44
2023-01-01T11:09:28.570Z,100181.97
2023-01-01T11:12:15.166Z,100176.69
2023-01-01T11:14:53.715Z,100184.28
2023-01-01T11:17:22.363Z,100183.44
2023-01-01T11:19:51.968Z,100181.75
2023-01-01T11:22:43.894Z,100184.69
2023-01-01T11:25:22.034Z,100176.09
2023-01-01T11:27:49.657Z,100169.16
2023-01-01T11:30:22.714Z,100174.63
2023-01-01T11:32:55.437Z,100170.75
2023-01-01T11:35:24.199Z,100161.50
2023-01-01T11:37:52.391Z,100150.78
2023-01-01T11:40:23.144Z,100149.53
2023-01-01T11:42:58.222Z,100141.94
2023-01-01T11:45:37.243Z,100141.13
2023-01-01T11:48:11.183Z,100138.59
2023-01-01T11:50:42.510Z,100139.09
2023-01-01T11:53:25.763Z,100130.16
2023-01-01T11:55:57.976Z,100145.22
2023-01-01T11:58:28.835Z,100136.53
2023-01-01T12:00:58.177Z,100133.44
2023-01-01T12:03:33.758Z,100136.19
2023-01-01T12:06:14.137Z,100146.06
2023-01-01T12:09:05.539Z,100149.38
2023-01-01T12:11:43.296Z,100159.00
2023-01-01T12:14:46.178Z,100148.50
2023-01-01T12:17:18.945Z,100156.44
2023-01-01T12:19:56.722Z,100137.50
2023-01-01T12:22:23.481Z,100136.88
2023-01-01T12:24:51.161Z,100148.06
2023-01-01T12:27:41.333Z,100133.53
2023-01-01T12:30:15.594Z,100139.16
2023-01-01T12:33:08.401Z,100150.44
2023-01-01T12:35:57.354Z,100142.47
2023-01-01T12:38:45.945Z,100133.22
2023-01-01T12:41:25.192Z,100136.78
2023-01-01T12:44:19.231Z,100133.19
2023-01-01T12:47:12.093Z,100134.44
2023-01-01T12:50:07.743Z,100135.50
2023-01-01T12:52:43.489Z,100132.53
2023-01-01T12:55:58.002Z,100123.75
2023-01-01T12:58:30.579Z,100118.63
2023-01-01T13:01:09.536Z,100118.63
2023-01-01T13:03:52.857Z,100121.13
2023-01-01T13:06:44.383Z,100115.00
2023-01-01T13:09:21.111Z,100105.03
2023-01-01T13:11:51.298Z,100112.75
2023-01-01T13:14:18.042Z,100111.63
2023-01-01T13:16:50.644Z,100109.47
2023-01-01T13:19:25.328Z,100112.97
2023-01-01T13:21:51.973Z,100121.34
2023-01-01T13:24:21.650Z,100113.16
2023-01-01T13:26:50.166Z,100120.22
2023-01-01T13:29:19.766Z,100119.38
2023-01-01T13:31:46.231Z,100131.13
2023-01-01T13:34:31.684Z,100127.22
2023-01-01T13:37:10.656Z,100130.16
2023-01-01T13:39:59.835Z,100121.84
2023-01-01T13:43:04.497Z,100145.06
2023-01-01T13:48:25.169Z,100147.44
2023-01-01T13:51:27.967Z,100150.69
2023-01-01T13:54:16.211Z,100153.16
2023-01-01T13:56:54.707Z,100155.00
2023-01-01T13:59:59.148Z,100154.50
2023-01-01T14:02:45.344Z,100161.78
2023-01-01T14:05:18.796Z,100166.84
2023-01-01T14:07:51.935Z,100172.28
2023-01-01T14:10:23.525Z,100179.13
2023-01-01T14:12:51.778Z,100181.56
2023-01-01T14:15:57.881Z,100193.94
2023-01-01T14:18:45.660Z,100198.00
2023-01-01T14:21:17.763Z,100206.66
2023-01-01T14:23:48.659Z,100206.38
2023-01-01T14:26:20.385Z,100213.88
2023-01-01T14:28:48.825Z,100219.44
2023-01-01T14:31:19.203Z,100218.38
2023-01-01T14:33:46.375Z,100218.75
2023-01-01T14:36:28.087Z,100216.69
2023-01-01T14:38:56.817Z,100218.50
2023-01-01T14:41:33.139Z,100230.13
2023-01-01T14:44:05.991Z,100231.53
2023-01-01T14:46:32.762Z,100241.88
2023-01-01T14:49:08.865Z,100243.63
2023-01-01T14:51:39.509Z,100249.81
2023-01-01T14:54:15.880Z,100254.66
2023-01-01T14:56:42.781Z,100257.09
2023-01-01T14:59:22.896Z,100252.31
2023-01-01T15:02:11.823Z,100249.97
2023-01-01T15:04:38.969Z,100251.47
2023-01-01T15:07:06.255Z,100250.13
2023-01-01T15:09:33.121Z,100253.28
2023-01-01T15:12:00.058Z,100265.81
2023-01-01T15:14:29.124Z,100270.34
2023-01-01T15:17:07.532Z,100258.34
2023-01-01T15:19:35.343Z,100256.53
2023-01-01T15:22:08.096Z,100257.59
2023-01-01T15:24:36.463Z,100260.47
2023-01-01T15:27:05.706Z,100250.16
2023-01-01T15:29:45.603Z,100253.25
2023-01-01T15:32:15.839Z,100248.91
2023-01-01T15:34:53.615Z,100253.44
2023-01-01T15:37:25.366Z,100249.69
2023-01-01T15:39:54.194Z,100248.72
2023-01-01T15:42:37.076Z,100249.28
2023-01-01T15:45:25.994Z,100253.56
2023-01-01T15:47:55.281Z,100256.16
2023-01-01T15:50:25.692Z,100259.03
2023-01-01T15:53:00.523Z,100259.66
2023-01-01T15:55:29.758Z,100257.66
2023-01-01T15:57:57.275Z,100264.59
2023-01-01T16:00:28.278Z,100270.75
2023-01-01T16:02:58.687Z,100268.91
2023-01-01T16:05:28.037Z,100264.22
2023-01-01T16:08:05.199Z,100266.63
2023-01-01T16:10:32.108Z,100274.63
2023-01-01T16:12:59.261Z,100270.78
2023-01-01T16:15:26.639Z,100266.59
2023-01-01T16:17:53.488Z,100262.94
2023-01-01T16:20:22.390Z,100266.88
2023-01-01T16:22:49.011Z,100256.69
2023-01-01T16:25:18.619Z,100252.69
2023-01-01T16:27:45.206Z,100252.38
2023-01-01T16:30:12.737Z,100243.72
2023-01-01T16:32:39.216Z,100250.88
2023-01-01T16:35:12.054Z,100261.59
2023-01-01T16:37:38.659Z,100269.75
2023-01-01T16:40:06.920Z,100254.22
2023-01-01T16:42:33.374Z,100251.44
2023-01-01T16:45:00.232Z,100251.78
2023-01-01T16:47:26.915Z,100251.44
2023-01-01T16:49:53.351Z,100260.56
2023-01-01T16:52:19.739Z,100259.69
2023-01-01T16:54:46.475Z,100262.75
2023-01-01T16:57:13.079Z,100260.53
2023-01-01T16:59:39.592Z,100253.28
2023-01-01T17:02:09.997Z,100252.59
2023-01-01T17:04:36.837Z,100254.38
2023-01-01T17:07:03.522Z,100258.88
2023-01-01T17:09:30.024Z,100266.50
2023-01-01T17:11:56.636Z,100263.63
2023-01-01T17:14:23.188Z,100257.84
2023-01-01T17:16:51.906Z,100257.19
2023-01-01T17:19:19.474Z,100257.38
2023-01-01T17:21:46.903Z,100259.75
2023-01-01T17:24:15.178Z,100253.31
2023-01-01T17:26:41.616Z,100251.75
2023-01-01T17:29:08.206Z,100245.94
2023-01-01T17:31:36.185Z,100259.03
2023-01-01T17:34:02.864Z,100261.34
2023-01-01T17:36:29.457Z,100260.22
2023-01-01T17:38:56.697Z,100263.94
2023-01-01T17:41:23.566Z,100258.69
2023-01-01T17:43:51.284Z,100267.53
2023-01-01T17:46:20.245Z,100258.53
2023-01-01T17:48:47.703Z,100257.84
2023-01-01T17:51:15.524Z,100254.50
2023-01-01T17:53:43.313Z,100254.50
2023-01-01T17:56:14.439Z,100248.28
2023-01-01T17:58:42.450Z,100260.16
2023-01-01T18:01:21.348Z,100278.28
2023-01-01T18:03:49.669Z,100264.78
2023-01-01T18:06:16.107Z,100272.28
2023-01-01T18:08:44.667Z,100275.91
2023-01-01T18:11:11.099Z,100283.72
2023-01-01T18:13:37.540Z,100285.63
2023-01-01T18:16:06.728Z,100279.53
2023-01-01T18:18:37.384Z,100280.06
2023-01-01T18:21:07.090Z,100281.97
2023-01-01T18:23:39.674Z,100278.41
2023-01-01T18:26:09.910Z,100285.34
2023-01-01T18:28:36.522Z,100288.59
2023-01-01T18:31:11.448Z,100285.88
2023-01-01T18:33:38.498Z,100287.72
2023-01-01T18:36:07.759Z,100288.56
2023-01-01T18:38:34.555Z,100282.50
2023-01-01T18:41:18.846Z,100285.16
2023-01-01T18:43:45.263Z,100294.47
2023-01-01T18:46:11.724Z,100284.69
2023-01-01T18:48:39.468Z,100283.97
2023-01-01T18:51:13.827Z,100284.31
2023-01-01T18:53:41.379Z,100282.66
2023-01-01T18:56:13.015Z,100275.72
2023-01-01T18:58:43.910Z,100284.03
2023-01-01T19:01:14.636Z,100276.88
2023-01-01T19:03:41.975Z,100280.25
2023-01-01T19:06:27.904Z,100281.63
2023-01-01T19:09:14.751Z,100274.34
2023-01-01T19:11:45.768Z,100273.03
2023-01-01T19:14:19.277Z,100278.75
2023-01-01T19:16:48.387Z,100277.56
2023-01-01T19:19:22.992Z,100282.63
2023-01-01T19:21:52.326Z,100275.91
2023-01-01T19:24:24.059Z,100275.53
2023-01-01T19:27:18.241Z,100277.22
2023-01-01T19:29:48.265Z,100281.41
2023-01-01T19:32:15.708Z,100278.78
2023-01-01T19:34:43.343Z,100276.78
2023-01-01T19:37:16.381Z,100279.13
2023-01-01T19:39:43.758Z,100267.97
2023-01-01T19:42:13.941Z,100279.25
2023-01-01T19:44:41.888Z,100277.75
2023-01-01T19:47:11.413Z,100276.84
2023-01-01T19:49:39.061Z,100276.53
2023-01-01T19:52:07.255Z,100278.72
2023-01-01T19:54:37.095Z,100265.69
2023-01-01T19:57:04.695Z,100266.69
2023-01-01T19:59:33.689Z,100263.03
2023-01-01T20:02:43.321Z,100270.31
2023-01-01T20:04:49.341Z,100264.03
2023-01-01T20:07:17.369Z,100257.63
2023-01-01T20:09:44.015Z,100251.75
2023-01-01T20:18:30.769Z,100244.91
2023-01-01T20:21:26.010Z,100241.34
2023-01-01T20:23:55.303Z,100245.69
2023-01-01T20:26:26.666Z,100247.47
2023-01-01T20:29:12.172Z,100241.03
2023-01-01T20:31:39.193Z,100245.06
2023-01-01T20:34:08.104Z,100251.34
2023-01-01T20:36:53.636Z,100246.25
2023-01-01T20:39:22.915Z,100243.50
2023-01-01T20:41:50.240Z,100242.66
2023-01-01T20:44:18.973Z,100234.34
2023-01-01T20:46:47.937Z,100235.84
2023-01-01T20:49:17.829Z,100238.31
2023-01-01T20:51:52.437Z,100228.22
2023-01-01T20:54:22.579Z,100225.19
2023-01-01T20:56:54.570Z,100225.19
2023-01-01T20:59:38.323Z,100223.81
2023-01-01T21:02:06.713Z,100221.53
2023-01-01T21:04:38.346Z,100220.84
2023-01-01T21:07:07.144Z,100222.25
2023-01-01T21:09:34.747Z,100220.22
2023-01-01T21:12:02.032Z,100219.53
2023-01-01T21:14:32.428Z,100215.13
2023-01-01T21:17:00.745Z,100204.19
2023-01-01T21:19:28.496Z,100191.06
2023-01-01T21:21:57.888Z,100201.94
2023-01-01T21:24:27.458Z,100196.25
2023-01-01T21:26:59.682Z,100198.28
2023-01-01T21:29:28.140Z,100206.41
2023-01-01T21:32:08.531Z,100205.91
2023-01-01T21:34:39.323Z,100193.59
2023-01-01T21:37:44.829Z,100186.84
2023-01-01T21:40:48.651Z,100184.38
2023-01-01T21:43:25.681Z,100187.75
2023-01-01T21:45:52.702Z,100170.66
2023-01-01T21:48:32.874Z,100154.41
2023-01-01T21:51:01.517Z,100148.31
2023-01-01T21:53:34.138Z,100165.56
2023-01-01T21:56:05.205Z,100166.78
2023-01-01T21:58:58.597Z,100164.91
2023-01-01T22:01:39.914Z,100170.00
2023-01-01T22:04:18.980Z,100163.56
2023-01-01T22:06:47.249Z,100150.53
2023-01-01T22:09:25.917Z,100160.50
2023-01-01T22:11:57.502Z,100155.25
2023-01-01T22:14:26.603Z,100151.69
2023-01-01T22:16:59.438Z,100155.25
2023-01-01T22:19:31.688Z,100146.47
2023-01-01T22:21:58.091Z,100146.63
2023-01-01T22:24:33.479Z,100154.25
2023-01-01T22:27:23.966Z,100146.81
2023-01-01T22:29:50.526Z,100143.25
2023-01-01T22:32:37.207Z,100146.63
2023-01-01T22:35:33.227Z,100142.56
2023-01-01T22:38:01.495Z,100145.28
2023-01-01T22:40:30.146Z,100125.16
2023-01-01T22:42:59.953Z,100123.63
2023-01-01T22:45:26.749Z,100133.66
2023-01-01T22:47:53.199Z,100141.28
2023-01-01T22:50:25.396Z,100131.75
2023-01-01T22:52:53.894Z,100134.63
2023-01-01T22:55:20.340Z,100129.72
2023-01-01T22:57:47.091Z,100135.47
2023-01-01T23:00:17.116Z,100124.16
2023-01-01T23:02:44.333Z,100118.56
2023-01-01T23:05:11.313Z,100116.69
2023-01-01T23:07:41.931Z,100118.56
2023-01-01T23:10:11.079Z,100112.06
2023-01-01T23:12:37.702Z,100120.53
2023-01-01T23:15:23.437Z,100112.06
2023-01-01T23:17:49.854Z,100115.09
2023-01-01T23:20:16.362Z,100117.81
2023-01-01T23:22:45.206Z,100103.78
2023-01-01T23:25:14.491Z,100097.81
2023-01-01T23:27:41.366Z,100091.72
2023-01-01T23:30:08.753Z,100088.97
2023-01-01T23:32:35.940Z,100096.56
2023-01-01T23:35:02.678Z,100080.06
2023-01-01T23:37:29.103Z,100082.34
2023-01-01T23:39:55.467Z,100092.16
2023-01-01T23:42:23.845Z,100078.38
2023-01-01T23:44:50.289Z,100081.09
2023-01-01T23:47:17.137Z,100073.50
2023-01-01T23:49:43.531Z,100072.97
2023-01-01T23:52:11.094Z,100077.91
2023-01-01T23:54:39.056Z,100076.75
2023-01-01T23:57:05.587Z,100067.03
2023-01-01T23:59:32.044Z,100069.72
